Etusivu
METAR-TAF:

METAR-TAF

Lentoasemat :

Beaumont, Texas, Yhdysvallat

Leveyspiiri: 30-04-13N, Pituuspiiri: 094-12-54W, korkeus merenpinnasta: 10 m

Tämänhetkinen sää

Tämä raportti tehtiin 14 minuuttia sitten, kello 22.15 UTC
Tuuli 9 kn idästä/kaakosta
Lämpötila 17°C
Kosteus 82%
Ilmanpaine 1011 hPa
Näkyvyys: 16.1 km
Pilvistä 1600 ft:n korkeudessa
heikkoa tihkusadetta

METAR: KBMT 282215Z AUTO 11009KT 10SM -DZ OVC016 17/14 A2984 RMK AO2 T01690139

Aika: 15:29 (22:29 UTC)


TAF: puuttuu

Säähavainnot ja -ennusteet yli 4000 lentoasemalta (METAR- ja TAF-raportit).

Käytössä olevat sääasemat on merkitty karttaan keltaisilla ja punaisilla pisteillä.

Aseta hiiri pisteen päälle nähdäksesi sääaseman nimen.

Klikkaa sitten nähdäksesi säähavainnot ja -ennusteet.

Kartan vaihtaminen: klikkaa mustalla rastilla varustettuja vihreitä pisteitä, niin voit zoomata sisään; viivalla varustettua vihreää pistettä, niin voit zoomata ulos tai vihreitä nuolia, niin pääset viereisille kartoille.


METAR-TAF: